Time;durP1;ratioP1;P1;durP2;ratioP2;P2;SDS_P1;SDS_P2;PMS_P1;PMS_P2;Temp;Humidity;BMP_temperature;BMP_pressure;BME280_temperature;BME280_humidity;BME280_pressure;Samples;Min_cycle;Max_cycle;Signal;HPM_P1;HPM_P2
2023/11/23 00:01:54;;;;;;;17.20;10.82;;;;;;;;;;6289513;28;20056;-75
2023/11/23 00:04:57;;;;;;;18.88;12.02;;;;;;;;;;6291263;28;20064;-75
2023/11/23 00:08:00;;;;;;;20.40;13.32;;;;;;;;;;6293784;28;20716;-76
2023/11/23 00:11:02;;;;;;;20.15;12.50;;;;;;;;;;6288754;28;20064;-76
2023/11/23 00:14:06;;;;;;;20.70;13.23;;;;;;;;;;6310665;28;20056;-75
2023/11/23 00:17:08;;;;;;;21.40;14.25;;;;;;;;;;6293991;28;20054;-76
2023/11/23 00:20:10;;;;;;;23.15;14.07;;;;;;;;;;6276810;28;20140;-75
2023/11/23 00:23:12;;;;;;;25.50;14.15;;;;;;;;;;6285528;28;20073;-75
2023/11/23 00:26:14;;;;;;;20.75;14.48;;;;;;;;;;6307366;28;20576;-76
2023/11/23 00:29:27;;;;;;;24.40;14.57;;;;;;;;;;6292683;28;20071;-76
2023/11/23 00:32:29;;;;;;;22.67;13.60;;;;;;;;;;6257879;28;20197;-75
2023/11/23 00:35:31;;;;;;;22.73;13.75;;;;;;;;;;6261408;28;20048;-76
2023/11/23 00:38:34;;;;;;;23.70;14.10;;;;;;;;;;6291862;28;20055;-75
2023/11/23 00:41:36;;;;;;;25.02;15.02;;;;;;;;;;6310548;28;20055;-76
2023/11/23 00:44:39;;;;;;;23.02;13.95;;;;;;;;;;6293064;28;20044;-75
2023/11/23 00:47:42;;;;;;;20.92;13.63;;;;;;;;;;6311042;28;20554;-75
2023/11/23 00:50:45;;;;;;;20.95;13.63;;;;;;;;;;6275161;28;20052;-75
2023/11/23 00:53:47;;;;;;;22.20;14.45;;;;;;;;;;6311335;28;20446;-76
2023/11/23 00:56:49;;;;;;;20.85;13.57;;;;;;;;;;6308272;28;20120;-75
2023/11/23 00:59:52;;;;;;;22.02;13.68;;;;;;;;;;6309459;28;20044;-75
2023/11/23 01:02:55;;;;;;;20.08;13.25;;;;;;;;;;6309908;28;20048;-75
2023/11/23 01:05:59;;;;;;;23.83;15.13;;;;;;;;;;6308951;28;20126;-75
2023/11/23 01:09:02;;;;;;;19.88;13.27;;;;;;;;;;6269858;28;20549;-75
2023/11/23 01:12:08;;;;;;;22.80;13.45;;;;;;;;;;6310351;28;20691;-76
2023/11/23 01:15:12;;;;;;;21.00;12.30;;;;;;;;;;6280956;28;20070;-76
2023/11/23 01:18:15;;;;;;;25.30;12.90;;;;;;;;;;6290737;28;20071;-76
2023/11/23 01:21:17;;;;;;;20.95;13.13;;;;;;;;;;6279486;28;20050;-76
2023/11/23 01:24:19;;;;;;;19.83;13.63;;;;;;;;;;6307695;28;20056;-76
2023/11/23 01:27:21;;;;;;;21.02;12.90;;;;;;;;;;6291377;28;20656;-76
2023/11/23 01:30:23;;;;;;;21.58;13.02;;;;;;;;;;6278222;28;20097;-76
2023/11/23 01:33:26;;;;;;;19.70;13.60;;;;;;;;;;6217923;28;20059;-75
2023/11/23 01:36:28;;;;;;;17.83;12.93;;;;;;;;;;6309651;28;20475;-76
2023/11/23 01:39:32;;;;;;;18.80;13.07;;;;;;;;;;6308961;28;20087;-76
2023/11/23 01:42:34;;;;;;;19.05;12.20;;;;;;;;;;6216929;28;20054;-76
2023/11/23 01:45:37;;;;;;;20.17;11.63;;;;;;;;;;6221535;28;20058;-76
2023/11/23 01:48:40;;;;;;;20.23;14.35;;;;;;;;;;6273198;28;20109;-76
2023/11/23 01:51:43;;;;;;;20.92;13.10;;;;;;;;;;6289883;28;20044;-76
2023/11/23 01:54:46;;;;;;;22.40;13.45;;;;;;;;;;6285462;28;20066;-76
2023/11/23 01:57:51;;;;;;;24.65;14.02;;;;;;;;;;6303312;28;20048;-76
2023/11/23 02:00:54;;;;;;;24.15;15.57;;;;;;;;;;6288811;28;20427;-76
2023/11/23 02:03:56;;;;;;;20.67;12.55;;;;;;;;;;6274052;28;20064;-76
2023/11/23 02:06:59;;;;;;;21.00;12.35;;;;;;;;;;6241918;28;20046;-76
2023/11/23 02:10:03;;;;;;;18.00;12.48;;;;;;;;;;6268024;28;20921;-76
2023/11/23 02:13:06;;;;;;;;;;;;;;;;;;6273026;28;20205;-76
2023/11/23 02:16:08;;;;;;;15.68;11.13;;;;;;;;;;6296262;28;20204;-76
2023/11/23 02:19:11;;;;;;;19.92;11.43;;;;;;;;;;6293711;28;20079;-76
2023/11/23 02:22:14;;;;;;;23.80;13.82;;;;;;;;;;6276870;28;20568;-76
2023/11/23 02:25:16;;;;;;;22.00;13.23;;;;;;;;;;6296508;28;20534;-77
2023/11/23 02:28:18;;;;;;;18.45;10.98;;;;;;;;;;6291254;28;20891;-76
2023/11/23 02:31:20;;;;;;;15.57;8.70;;;;;;;;;;6296038;28;20082;-76
2023/11/23 02:34:22;;;;;;;13.43;8.23;;;;;;;;;;6312071;28;20446;-76
2023/11/23 02:37:25;;;;;;;13.25;9.73;;;;;;;;;;6280353;28;20550;-76
2023/11/23 02:40:27;;;;;;;14.45;9.27;;;;;;;;;;6294888;28;20044;-76
2023/11/23 02:43:29;;;;;;;13.63;8.20;;;;;;;;;;6222396;28;20058;-76
2023/11/23 02:46:31;;;;;;;12.88;9.38;;;;;;;;;;6289487;28;20589;-76
2023/11/23 02:49:33;;;;;;;13.13;8.05;;;;;;;;;;6314065;28;20083;-76
2023/11/23 02:52:35;;;;;;;12.15;8.27;;;;;;;;;;6291318;28;20558;-76
2023/11/23 02:55:37;;;;;;;16.25;9.18;;;;;;;;;;6289465;28;20076;-76
2023/11/23 02:58:40;;;;;;;17.17;10.73;;;;;;;;;;6294411;28;20611;-76
2023/11/23 03:01:42;;;;;;;17.23;10.90;;;;;;;;;;6293014;28;20106;-76
2023/11/23 03:04:44;;;;;;;15.00;10.07;;;;;;;;;;6303999;28;20052;-77
2023/11/23 03:07:46;;;;;;;13.80;8.57;;;;;;;;;;6295188;28;20055;-76
2023/11/23 03:10:48;;;;;;;14.80;8.65;;;;;;;;;;6312077;28;20048;-75
2023/11/23 03:13:50;;;;;;;11.20;7.40;;;;;;;;;;6270057;28;20819;-76
2023/11/23 03:16:52;;;;;;;12.32;8.40;;;;;;;;;;6285861;28;20098;-76
2023/11/23 03:19:55;;;;;;;12.02;8.48;;;;;;;;;;6309246;28;20040;-76
2023/11/23 03:22:57;;;;;;;15.50;8.02;;;;;;;;;;6294627;28;20547;-76
2023/11/23 03:25:59;;;;;;;14.63;8.93;;;;;;;;;;6278047;28;20064;-76
2023/11/23 03:29:01;;;;;;;11.30;7.65;;;;;;;;;;6281005;28;20086;-76
2023/11/23 03:32:03;;;;;;;12.88;6.97;;;;;;;;;;6278073;28;20154;-76
2023/11/23 03:35:06;;;;;;;8.88;5.72;;;;;;;;;;6294287;28;20048;-76
2023/11/23 03:38:08;;;;;;;11.73;7.03;;;;;;;;;;6286031;28;20059;-76
2023/11/23 03:41:10;;;;;;;9.52;6.63;;;;;;;;;;6260703;28;20139;-76
2023/11/23 03:44:12;;;;;;;12.13;6.30;;;;;;;;;;6291931;28;20155;-75
2023/11/23 03:47:14;;;;;;;12.30;7.28;;;;;;;;;;6294713;28;20059;-76
2023/11/23 03:50:16;;;;;;;13.10;8.98;;;;;;;;;;6311131;28;20451;-75
2023/11/23 03:53:18;;;;;;;12.55;7.03;;;;;;;;;;6282975;28;20048;-76
2023/11/23 03:56:20;;;;;;;11.43;7.40;;;;;;;;;;6258846;28;20059;-76
2023/11/23 03:59:22;;;;;;;11.93;7.32;;;;;;;;;;6309593;28;20123;-76
2023/11/23 04:02:25;;;;;;;26.25;13.57;;;;;;;;;;6303668;28;20055;-76
2023/11/23 04:05:27;;;;;;;15.85;9.43;;;;;;;;;;6311858;28;20556;-75
2023/11/23 04:08:29;;;;;;;13.23;9.80;;;;;;;;;;6289928;28;20916;-76
2023/11/23 04:11:32;;;;;;;13.38;8.20;;;;;;;;;;6311435;28;20056;-76
2023/11/23 04:14:35;;;;;;;13.43;8.73;;;;;;;;;;6283026;28;20480;-76
2023/11/23 04:17:38;;;;;;;12.93;8.13;;;;;;;;;;6311607;28;20048;-76
2023/11/23 04:20:40;;;;;;;16.92;9.45;;;;;;;;;;6307787;28;20102;-76
2023/11/23 04:23:44;;;;;;;16.05;9.85;;;;;;;;;;6308428;28;20052;-75
2023/11/23 04:26:46;;;;;;;15.55;9.88;;;;;;;;;;6310860;28;20044;-75
2023/11/23 04:29:48;;;;;;;16.40;9.80;;;;;;;;;;6288073;28;20545;-76
2023/11/23 04:32:52;;;;;;;14.60;8.95;;;;;;;;;;6307013;28;20592;-76
2023/11/23 04:35:54;;;;;;;14.20;8.38;;;;;;;;;;6307379;28;20515;-76
2023/11/23 04:38:56;;;;;;;14.35;9.18;;;;;;;;;;6292997;28;20141;-76
2023/11/23 04:41:58;;;;;;;13.40;8.38;;;;;;;;;;6249476;28;20071;-76
2023/11/23 04:45:02;;;;;;;16.52;9.75;;;;;;;;;;6276440;28;20086;-76
2023/11/23 04:48:05;;;;;;;13.43;9.05;;;;;;;;;;6293059;28;20055;-76
2023/11/23 04:51:07;;;;;;;16.58;9.85;;;;;;;;;;6307217;28;20047;-77
2023/11/23 04:54:09;;;;;;;14.95;8.50;;;;;;;;;;6310980;28;20048;-76
2023/11/23 04:57:12;;;;;;;15.48;9.00;;;;;;;;;;6273629;28;20056;-76
2023/11/23 05:00:14;;;;;;;13.57;7.75;;;;;;;;;;6311474;28;20044;-76
2023/11/23 05:03:17;;;;;;;14.00;8.73;;;;;;;;;;6256368;28;20100;-76
2023/11/23 05:06:19;;;;;;;13.60;8.65;;;;;;;;;;6258733;28;20060;-76
2023/11/23 05:09:22;;;;;;;12.10;8.35;;;;;;;;;;6278544;28;20044;-73
2023/11/23 05:12:24;;;;;;;14.38;9.35;;;;;;;;;;6308621;28;20112;-73
2023/11/23 05:15:26;;;;;;;13.98;8.13;;;;;;;;;;6295249;28;20179;-74
2023/11/23 05:18:28;;;;;;;14.10;7.45;;;;;;;;;;6317849;28;20124;-74
2023/11/23 05:21:30;;;;;;;13.50;7.97;;;;;;;;;;6310898;28;20079;-72
2023/11/23 05:24:32;;;;;;;14.55;9.63;;;;;;;;;;6279683;28;20059;-72
2023/11/23 05:27:34;;;;;;;13.25;8.88;;;;;;;;;;6290362;28;20052;-72
2023/11/23 05:30:36;;;;;;;15.18;8.23;;;;;;;;;;6267086;28;20040;-72
2023/11/23 05:33:38;;;;;;;14.80;8.32;;;;;;;;;;6285654;28;20890;-72
2023/11/23 05:36:40;;;;;;;12.90;9.27;;;;;;;;;;6306226;28;20056;-72
2023/11/23 05:39:42;;;;;;;15.32;9.15;;;;;;;;;;6307959;28;20043;-72
2023/11/23 05:42:46;;;;;;;14.88;8.63;;;;;;;;;;6305649;28;20066;-72
2023/11/23 05:46:01;;;;;;;13.88;8.43;;;;;;;;;;6311704;28;20759;-72
2023/11/23 05:49:03;;;;;;;17.45;9.00;;;;;;;;;;6304619;28;20523;-71
2023/11/23 05:52:07;;;;;;;17.40;9.20;;;;;;;;;;6250210;28;20052;-72
2023/11/23 05:55:09;;;;;;;15.60;9.63;;;;;;;;;;6305489;28;20067;-71
2023/11/23 05:58:11;;;;;;;14.25;10.07;;;;;;;;;;6307918;28;20202;-70
2023/11/23 06:01:13;;;;;;;19.52;9.90;;;;;;;;;;6308968;28;20628;-71
2023/11/23 06:04:15;;;;;;;21.95;11.75;;;;;;;;;;6317764;28;20067;-70
2023/11/23 06:07:17;;;;;;;19.42;11.98;;;;;;;;;;6308864;28;20439;-71
2023/11/23 06:10:20;;;;;;;17.70;9.38;;;;;;;;;;6311557;28;20044;-71
2023/11/23 06:13:22;;;;;;;18.60;9.35;;;;;;;;;;6307485;28;20079;-71
2023/11/23 06:16:24;;;;;;;15.77;9.48;;;;;;;;;;6308070;28;20104;-71
2023/11/23 06:19:26;;;;;;;14.23;9.25;;;;;;;;;;6306968;28;20085;-70
2023/11/23 06:22:28;;;;;;;14.70;8.65;;;;;;;;;;6299564;28;20114;-71
2023/11/23 06:25:30;;;;;;;14.70;8.00;;;;;;;;;;6306318;28;20044;-70
2023/11/23 06:28:32;;;;;;;16.20;9.13;;;;;;;;;;6306193;28;20071;-71
2023/11/23 06:31:34;;;;;;;15.25;10.35;;;;;;;;;;6303573;28;20044;-71
2023/11/23 06:34:36;;;;;;;17.60;10.18;;;;;;;;;;6182458;28;20831;-70
2023/11/23 06:37:42;;;;;;;15.77;9.70;;;;;;;;;;6289012;28;20052;-71
2023/11/23 06:40:44;;;;;;;16.85;10.57;;;;;;;;;;6307125;28;20048;-71
2023/11/23 06:43:48;;;;;;;16.67;10.55;;;;;;;;;;6306155;28;20816;-70
2023/11/23 06:46:50;;;;;;;16.83;10.95;;;;;;;;;;6286840;28;20059;-69
2023/11/23 06:49:52;;;;;;;15.88;9.10;;;;;;;;;;6305634;28;20048;-70
2023/11/23 06:52:54;;;;;;;13.80;8.93;;;;;;;;;;6309183;28;20048;-69
2023/11/23 06:56:02;;;;;;;16.35;8.40;;;;;;;;;;6305416;28;20123;-68
2023/11/23 06:59:04;;;;;;;21.02;9.55;;;;;;;;;;6304171;28;20757;-69
2023/11/23 07:02:06;;;;;;;16.42;9.02;;;;;;;;;;6307546;28;20142;-72
2023/11/23 07:05:10;;;;;;;16.13;9.82;;;;;;;;;;6292041;28;20056;-73
2023/11/23 07:08:11;;;;;;;18.00;9.32;;;;;;;;;;6284408;28;20059;-71
2023/11/23 07:11:18;;;;;;;19.45;11.27;;;;;;;;;;6254663;28;20044;-73
2023/11/23 07:14:21;;;;;;;21.33;11.13;;;;;;;;;;6313138;28;20143;-71
2023/11/23 07:17:24;;;;;;;17.02;9.85;;;;;;;;;;6298492;28;20647;-76
2023/11/23 07:20:27;;;;;;;18.35;9.57;;;;;;;;;;6314416;28;20225;-77
2023/11/23 07:23:29;;;;;;;17.70;10.02;;;;;;;;;;6314076;28;20052;-76
2023/11/23 07:26:31;;;;;;;15.50;8.57;;;;;;;;;;6287410;28;20062;-77
2023/11/23 07:29:34;;;;;;;14.57;8.98;;;;;;;;;;6309183;28;20055;-78
2023/11/23 07:32:36;;;;;;;15.10;8.90;;;;;;;;;;6279384;28;20438;-78
2023/11/23 07:35:41;;;;;;;14.65;9.25;;;;;;;;;;6299663;28;20044;-78
2023/11/23 07:38:44;;;;;;;17.10;10.88;;;;;;;;;;6325751;28;20075;-78
2023/11/23 07:41:47;;;;;;;19.67;12.43;;;;;;;;;;6287032;28;20040;-78
2023/11/23 07:44:49;;;;;;;16.63;10.20;;;;;;;;;;6323522;28;20073;-78
2023/11/23 07:47:51;;;;;;;13.23;9.25;;;;;;;;;;6316331;28;20383;-77
2023/11/23 07:50:54;;;;;;;18.40;9.85;;;;;;;;;;6309877;28;20048;-75
2023/11/23 07:53:56;;;;;;;19.92;12.52;;;;;;;;;;6298630;28;20127;-75
2023/11/23 07:56:59;;;;;;;17.30;10.95;;;;;;;;;;6291017;28;20050;-80
2023/11/23 08:00:04;;;;;;;15.25;10.02;;;;;;;;;;6311167;28;20044;-71
2023/11/23 08:03:09;;;;;;;16.17;10.48;;;;;;;;;;6318844;28;20522;-83
2023/11/23 08:06:12;;;;;;;22.92;15.30;;;;;;;;;;6292731;28;20056;-83
2023/11/23 08:09:19;;;;;;;14.82;10.43;;;;;;;;;;6261965;28;20040;-86
2023/11/23 08:12:22;;;;;;;13.10;8.57;;;;;;;;;;6294673;28;20159;-85
2023/11/23 08:15:25;;;;;;;17.17;10.45;;;;;;;;;;6289975;28;20063;-82
2023/11/23 08:18:28;;;;;;;10.93;7.63;;;;;;;;;;6292311;28;20064;-79
2023/11/23 08:21:45;;;;;;;12.93;7.13;;;;;;;;;;6286986;28;20040;-79
2023/11/23 08:24:51;;;;;;;9.32;6.28;;;;;;;;;;6289590;28;20509;-79
2023/11/23 08:27:53;;;;;;;11.50;6.30;;;;;;;;;;6281156;28;20408;-74
2023/11/23 08:30:55;;;;;;;14.73;9.38;;;;;;;;;;6283318;28;20052;-68
2023/11/23 08:33:57;;;;;;;15.65;11.40;;;;;;;;;;6310443;28;20077;-68
2023/11/23 08:36:59;;;;;;;18.77;10.05;;;;;;;;;;6310533;28;20051;-68
2023/11/23 08:40:03;;;;;;;24.95;16.10;;;;;;;;;;6310269;28;20044;-68
2023/11/23 08:43:08;;;;;;;16.63;9.10;;;;;;;;;;6292493;28;20084;-80
2023/11/23 08:46:10;;;;;;;15.73;10.07;;;;;;;;;;6293067;28;20052;-85
2023/11/23 08:49:13;;;;;;;14.15;12.13;;;;;;;;;;6276802;28;20648;-78
2023/11/23 08:52:15;;;;;;;16.67;11.52;;;;;;;;;;6268141;28;20044;-69
2023/11/23 08:55:24;;;;;;;16.20;11.23;;;;;;;;;;6309702;28;20044;-84
2023/11/23 08:58:27;;;;;;;13.85;10.25;;;;;;;;;;6292757;28;20040;-81
2023/11/23 09:01:29;;;;;;;11.65;6.82;;;;;;;;;;6310942;28;20506;-73
2023/11/23 09:04:36;;;;;;;10.73;7.63;;;;;;;;;;6277494;28;20055;-74
2023/11/23 09:07:46;;;;;;;23.60;16.35;;;;;;;;;;6267072;28;21106;-74
2023/11/23 09:10:48;;;;;;;24.77;17.92;;;;;;;;;;6283060;28;20745;-74
2023/11/23 09:13:50;;;;;;;17.88;13.25;;;;;;;;;;6291623;28;20059;-75
2023/11/23 09:16:53;;;;;;;18.42;13.25;;;;;;;;;;6289827;28;20059;-74
2023/11/23 09:19:55;;;;;;;17.23;12.98;;;;;;;;;;6303207;28;20048;-74
2023/11/23 09:22:57;;;;;;;11.48;8.70;;;;;;;;;;6232602;28;20056;-74
2023/11/23 09:26:00;;;;;;;15.02;10.95;;;;;;;;;;6290984;28;20082;-75
2023/11/23 09:29:04;;;;;;;12.23;8.70;;;;;;;;;;6310081;28;20044;-74
2023/11/23 09:32:07;;;;;;;13.95;12.50;;;;;;;;;;6309685;28;20118;-75
2023/11/23 09:35:10;;;;;;;12.65;10.98;;;;;;;;;;6309929;28;20454;-74
2023/11/23 09:38:12;;;;;;;9.75;7.45;;;;;;;;;;6308445;28;20055;-74
2023/11/23 09:41:18;;;;;;;9.00;7.55;;;;;;;;;;6289693;28;20127;-74
2023/11/23 09:44:20;;;;;;;11.07;8.73;;;;;;;;;;6292773;28;20048;-74
2023/11/23 09:47:31;;;;;;;9.30;6.72;;;;;;;;;;6252437;28;20218;-74
2023/11/23 09:50:34;;;;;;;14.13;9.57;;;;;;;;;;6292529;28;20040;-74
2023/11/23 09:53:46;;;;;;;19.42;14.77;;;;;;;;;;6260962;28;20100;-74
2023/11/23 09:56:48;;;;;;;9.48;6.38;;;;;;;;;;6257971;28;20055;-74
2023/11/23 09:59:50;;;;;;;7.07;5.07;;;;;;;;;;6264128;28;20040;-74
2023/11/23 10:02:56;;;;;;;5.70;4.05;;;;;;;;;;6260889;28;20054;-74
2023/11/23 10:05:59;;;;;;;10.07;6.57;;;;;;;;;;6304303;28;20044;-74
2023/11/23 10:09:01;;;;;;;6.13;2.13;;;;;;;;;;6291695;28;20044;-74
2023/11/23 10:12:03;;;;;;;3.17;1.83;;;;;;;;;;6305315;28;20601;-74
2023/11/23 10:15:08;;;;;;;3.30;2.00;;;;;;;;;;6254103;28;20059;-74
2023/11/23 10:18:11;;;;;;;3.83;3.00;;;;;;;;;;6261723;28;20048;-74
2023/11/23 10:21:13;;;;;;;4.57;2.50;;;;;;;;;;6305020;28;20080;-74
2023/11/23 10:24:16;;;;;;;2.28;1.58;;;;;;;;;;6287254;28;20052;-74
2023/11/23 10:27:20;;;;;;;2.83;1.70;;;;;;;;;;6282132;28;20048;-75
2023/11/23 10:30:27;;;;;;;3.88;2.78;;;;;;;;;;6244352;28;20058;-74
2023/11/23 10:33:30;;;;;;;3.80;2.67;;;;;;;;;;6237322;28;20847;-74
2023/11/23 10:36:34;;;;;;;3.03;2.33;;;;;;;;;;6289185;28;20055;-74
2023/11/23 10:39:36;;;;;;;2.65;1.67;;;;;;;;;;6287933;28;20136;-75
2023/11/23 10:42:39;;;;;;;3.60;1.88;;;;;;;;;;6308084;28;20522;-75
2023/11/23 10:45:44;;;;;;;3.05;1.95;;;;;;;;;;6244849;28;20594;-75
2023/11/23 10:48:47;;;;;;;5.28;2.78;;;;;;;;;;6255828;28;20076;-75
2023/11/23 10:51:50;;;;;;;26.83;9.60;;;;;;;;;;6303359;28;20052;-75
2023/11/23 10:54:52;;;;;;;38.10;13.27;;;;;;;;;;6264330;28;20103;-76
2023/11/23 10:58:04;;;;;;;16.50;7.38;;;;;;;;;;6314864;28;20051;-75
2023/11/23 11:01:07;;;;;;;13.18;6.40;;;;;;;;;;6287309;28;20856;-75
2023/11/23 11:04:12;;;;;;;16.50;7.97;;;;;;;;;;6282172;28;20220;-75
2023/11/23 11:07:15;;;;;;;12.98;5.75;;;;;;;;;;6293492;28;20043;-75
2023/11/23 11:10:19;;;;;;;5.38;2.83;;;;;;;;;;6277758;28;20080;-75
2023/11/23 11:13:23;;;;;;;4.22;2.78;;;;;;;;;;6291930;28;20101;-75
2023/11/23 11:16:33;;;;;;;6.47;3.33;;;;;;;;;;6293616;28;20110;-75
2023/11/23 11:19:49;;;;;;;9.25;4.50;;;;;;;;;;6242922;28;20132;-75
2023/11/23 11:22:56;;;;;;;5.65;3.35;;;;;;;;;;6271539;28;20839;-75
2023/11/23 11:26:05;;;;;;;6.68;3.75;;;;;;;;;;6267973;28;20214;-75
2023/11/23 11:29:08;;;;;;;6.18;4.70;;;;;;;;;;6292451;28;20157;-75
2023/11/23 11:32:14;;;;;;;7.72;4.07;;;;;;;;;;6278188;28;20044;-75
2023/11/23 11:35:18;;;;;;;12.13;5.35;;;;;;;;;;6312028;28;20678;-75
2023/11/23 11:38:20;;;;;;;5.38;2.95;;;;;;;;;;6258338;28;20055;-75
2023/11/23 11:41:26;;;;;;;4.13;2.55;;;;;;;;;;6280574;28;20049;-75
2023/11/23 11:44:34;;;;;;;3.95;2.60;;;;;;;;;;6270631;28;20056;-75
2023/11/23 11:47:41;;;;;;;6.13;3.25;;;;;;;;;;6260320;28;20424;-75
2023/11/23 11:50:43;;;;;;;6.85;3.90;;;;;;;;;;6249191;28;20106;-75
2023/11/23 11:53:46;;;;;;;7.93;4.80;;;;;;;;;;6282979;28;20048;-75
2023/11/23 11:56:49;;;;;;;5.63;2.40;;;;;;;;;;6289530;28;20060;-75
2023/11/23 11:59:52;;;;;;;4.72;3.15;;;;;;;;;;6288922;28;20044;-75
2023/11/23 12:02:55;;;;;;;7.38;3.22;;;;;;;;;;6279378;28;20067;-75
2023/11/23 12:05:58;;;;;;;9.40;3.38;;;;;;;;;;6294466;28;20056;-75
2023/11/23 12:09:00;;;;;;;6.65;3.30;;;;;;;;;;6276922;28;20610;-75
2023/11/23 12:12:06;;;;;;;10.65;4.72;;;;;;;;;;6277908;28;20052;-75
2023/11/23 12:15:09;;;;;;;5.85;3.17;;;;;;;;;;6266211;28;20048;-75
2023/11/23 12:18:14;;;;;;;7.97;3.55;;;;;;;;;;6287084;28;20840;-75
2023/11/23 12:21:18;;;;;;;8.50;4.07;;;;;;;;;;6274573;28;20062;-75
2023/11/23 12:24:20;;;;;;;9.23;5.75;;;;;;;;;;6308464;28;20458;-75
2023/11/23 12:27:24;;;;;;;4.93;2.30;;;;;;;;;;6308088;28;20449;-75
2023/11/23 12:30:29;;;;;;;6.85;3.72;;;;;;;;;;6271917;28;20056;-75
2023/11/23 12:33:33;;;;;;;5.30;2.75;;;;;;;;;;6277596;28;20051;-75
2023/11/23 12:36:36;;;;;;;7.00;3.58;;;;;;;;;;6256098;28;20055;-75
2023/11/23 12:39:38;;;;;;;8.60;3.85;;;;;;;;;;6237860;28;20048;-75
2023/11/23 12:42:41;;;;;;;5.28;2.25;;;;;;;;;;6244887;28;20043;-75
2023/11/23 12:45:44;;;;;;;4.82;1.65;;;;;;;;;;6291221;28;20051;-75
2023/11/23 12:48:46;;;;;;;5.15;1.75;;;;;;;;;;6291696;28;20071;-75
2023/11/23 12:51:48;;;;;;;3.97;2.03;;;;;;;;;;6272381;28;20085;-74
2023/11/23 12:54:50;;;;;;;3.17;1.23;;;;;;;;;;6196252;28;20053;-74
2023/11/23 12:57:58;;;;;;;4.68;2.42;;;;;;;;;;6282609;28;20044;-79
2023/11/23 13:01:01;;;;;;;3.65;1.95;;;;;;;;;;6277622;28;20048;-70
2023/11/23 13:04:03;;;;;;;7.13;3.05;;;;;;;;;;6305592;28;20051;-70
2023/11/23 13:07:09;;;;;;;7.22;3.72;;;;;;;;;;6283861;28;20143;-70
2023/11/23 13:10:15;;;;;;;7.57;3.22;;;;;;;;;;6215187;28;20450;-70
2023/11/23 13:13:18;;;;;;;9.73;3.92;;;;;;;;;;6307305;28;20132;-70
2023/11/23 13:16:23;;;;;;;7.25;3.83;;;;;;;;;;6272266;28;20119;-70
2023/11/23 13:19:26;;;;;;;4.00;2.70;;;;;;;;;;6274218;28;20095;-71
2023/11/23 13:22:41;;;;;;;5.20;3.53;;;;;;;;;;6307320;28;20062;-72
2023/11/23 13:25:44;;;;;;;6.65;4.45;;;;;;;;;;6301407;28;20767;-71
2023/11/23 13:28:48;;;;;;;6.47;3.45;;;;;;;;;;6298035;28;20759;-71
2023/11/23 13:31:50;;;;;;;6.40;3.80;;;;;;;;;;6271501;28;20119;-71
2023/11/23 13:34:54;;;;;;;12.38;3.55;;;;;;;;;;6235180;28;20654;-71
2023/11/23 13:37:56;;;;;;;5.55;3.72;;;;;;;;;;6304392;28;20056;-71
2023/11/23 13:40:59;;;;;;;6.10;2.95;;;;;;;;;;6244060;28;20170;-71
2023/11/23 13:44:01;;;;;;;4.03;2.58;;;;;;;;;;6268788;28;20169;-71
2023/11/23 13:47:04;;;;;;;29.67;11.68;;;;;;;;;;6202427;28;20152;-71
2023/11/23 13:50:13;;;;;;;87.43;34.05;;;;;;;;;;6281787;28;20141;-71
2023/11/23 13:53:15;;;;;;;14.73;8.93;;;;;;;;;;6285758;28;20051;-71
2023/11/23 13:56:17;;;;;;;5.25;3.33;;;;;;;;;;6298127;28;20040;-71
2023/11/23 13:59:19;;;;;;;7.80;5.55;;;;;;;;;;6297161;28;20050;-71
2023/11/23 14:02:21;;;;;;;7.13;4.72;;;;;;;;;;6290888;28;20048;-71
2023/11/23 14:05:24;;;;;;;7.93;4.00;;;;;;;;;;6307711;28;20056;-71
2023/11/23 14:08:26;;;;;;;9.48;4.85;;;;;;;;;;6270160;28;20063;-71
2023/11/23 14:11:28;;;;;;;10.85;7.60;;;;;;;;;;6260079;28;20123;-71
2023/11/23 14:14:30;;;;;;;11.15;7.43;;;;;;;;;;6306969;28;20059;-71
2023/11/23 14:17:32;;;;;;;8.77;5.30;;;;;;;;;;6253960;28;20119;-71
2023/11/23 14:20:35;;;;;;;8.43;5.25;;;;;;;;;;6261372;28;20107;-72
2023/11/23 14:23:39;;;;;;;5.07;3.88;;;;;;;;;;6293035;28;20199;-71
2023/11/23 14:26:41;;;;;;;5.47;3.20;;;;;;;;;;6265836;28;20069;-71
2023/11/23 14:29:45;;;;;;;5.93;2.72;;;;;;;;;;6303056;28;20586;-71
2023/11/23 14:32:48;;;;;;;4.28;2.55;;;;;;;;;;6274084;28;20090;-71
2023/11/23 14:35:51;;;;;;;4.75;2.60;;;;;;;;;;6204543;28;20058;-71
2023/11/23 14:38:53;;;;;;;8.02;4.88;;;;;;;;;;6282641;28;20908;-71
2023/11/23 14:41:57;;;;;;;9.35;5.60;;;;;;;;;;6265783;28;20561;-71
2023/11/23 14:44:59;;;;;;;11.25;7.22;;;;;;;;;;6306464;28;20078;-71
2023/11/23 14:48:03;;;;;;;6.63;3.55;;;;;;;;;;6308734;28;20056;-72
2023/11/23 14:51:05;;;;;;;6.28;3.00;;;;;;;;;;6311782;28;20148;-71
2023/11/23 14:54:09;;;;;;;5.18;3.13;;;;;;;;;;6309277;28;20066;-71
2023/11/23 14:57:18;;;;;;;5.07;3.05;;;;;;;;;;6312697;28;20048;-72
2023/11/23 15:00:23;;;;;;;7.43;4.85;;;;;;;;;;6294729;28;20063;-72
2023/11/23 15:03:26;;;;;;;8.52;4.70;;;;;;;;;;6315177;28;20058;-72
2023/11/23 15:06:29;;;;;;;7.55;4.78;;;;;;;;;;6315736;28;20063;-72
2023/11/23 15:09:32;;;;;;;6.05;3.38;;;;;;;;;;6314885;28;20097;-85
2023/11/23 15:12:34;;;;;;;8.65;3.95;;;;;;;;;;6302827;28;20509;-80
2023/11/23 15:15:36;;;;;;;8.38;4.85;;;;;;;;;;6297242;28;20452;-72
2023/11/23 15:18:42;;;;;;;6.50;4.70;;;;;;;;;;6309058;28;20056;-87
2023/11/23 15:21:45;;;;;;;7.97;4.72;;;;;;;;;;6323602;28;20051;-79
2023/11/23 15:24:48;;;;;;;8.52;4.18;;;;;;;;;;6319344;28;20146;-79
2023/11/23 15:28:10;;;;;;;5.80;2.92;;;;;;;;;;6273224;28;20052;-76
2023/11/23 15:31:15;;;;;;;10.13;5.18;;;;;;;;;;6271580;28;20054;-69
2023/11/23 15:34:19;;;;;;;10.00;5.97;;;;;;;;;;6312306;28;20138;-70
2023/11/23 15:37:22;;;;;;;8.55;4.55;;;;;;;;;;6313696;28;20438;-70
2023/11/23 15:40:25;;;;;;;6.70;3.50;;;;;;;;;;6318140;28;20056;-70
2023/11/23 15:43:28;;;;;;;7.80;4.28;;;;;;;;;;6320272;28;20433;-71
2023/11/23 15:46:29;;;;;;;17.33;10.45;;;;;;;;;;6308406;28;20060;-70
2023/11/23 15:49:32;;;;;;;9.80;6.05;;;;;;;;;;6306683;28;20101;-70
2023/11/23 15:52:38;;;;;;;9.07;6.07;;;;;;;;;;6290753;28;20226;-74
2023/11/23 15:55:41;;;;;;;10.15;5.45;;;;;;;;;;6303622;28;20517;-74
2023/11/23 15:58:43;;;;;;;8.80;5.38;;;;;;;;;;6316661;28;20044;-71
2023/11/23 16:01:47;;;;;;;8.63;6.45;;;;;;;;;;6300024;28;20780;-71
2023/11/23 16:04:51;;;;;;;10.70;6.78;;;;;;;;;;6314807;28;20415;-79
2023/11/23 16:07:53;;;;;;;10.30;4.53;;;;;;;;;;6295198;28;20051;-79
2023/11/23 16:10:56;;;;;;;12.55;4.55;;;;;;;;;;6289563;28;20060;-83
2023/11/23 16:13:58;;;;;;;8.98;6.18;;;;;;;;;;6257477;28;20746;-81
2023/11/23 16:17:02;;;;;;;11.63;8.25;;;;;;;;;;6311020;28;20055;-81
2023/11/23 16:20:10;;;;;;;14.30;10.55;;;;;;;;;;6285840;28;20490;-82
2023/11/23 16:23:17;;;;;;;16.83;12.05;;;;;;;;;;6279919;28;20509;-81
2023/11/23 16:26:24;;;;;;;;;;;;;;;;;;6267356;28;20047;-76
2023/11/23 16:29:26;;;;;;;21.38;14.35;;;;;;;;;;6312937;28;19928;-68
2023/11/23 16:32:28;;;;;;;44.08;22.65;;;;;;;;;;6304397;28;20040;-67
2023/11/23 16:35:30;;;;;;;34.80;19.17;;;;;;;;;;6284902;28;20130;-69
2023/11/23 16:38:32;;;;;;;45.38;28.27;;;;;;;;;;6311175;28;20449;-68
2023/11/23 16:41:34;;;;;;;32.05;18.67;;;;;;;;;;6313271;28;20043;-68
2023/11/23 16:44:36;;;;;;;48.78;25.70;;;;;;;;;;6315982;28;20047;-71
2023/11/23 16:47:40;;;;;;;39.15;23.92;;;;;;;;;;6302618;28;20048;-69
2023/11/23 16:50:48;;;;;;;23.33;15.38;;;;;;;;;;6292896;28;20059;-70
2023/11/23 16:53:50;;;;;;;25.77;17.92;;;;;;;;;;6312969;28;20220;-67
2023/11/23 16:56:56;;;;;;;64.93;29.58;;;;;;;;;;6313131;28;20110;-66
2023/11/23 16:59:58;;;;;;;97.32;43.53;;;;;;;;;;6310784;28;20063;-70
2023/11/23 17:03:00;;;;;;;50.20;25.38;;;;;;;;;;6282798;28;20127;-70
2023/11/23 17:06:03;;;;;;;32.17;18.25;;;;;;;;;;6306671;28;20056;-69
2023/11/23 17:09:06;;;;;;;40.53;22.10;;;;;;;;;;6289994;28;20131;-70
2023/11/23 17:12:09;;;;;;;32.53;18.83;;;;;;;;;;6244901;28;20052;-69
2023/11/23 17:15:11;;;;;;;26.63;14.98;;;;;;;;;;6296196;28;20652;-69
2023/11/23 17:18:14;;;;;;;32.20;17.88;;;;;;;;;;6291962;28;20090;-70
2023/11/23 17:21:16;;;;;;;35.65;20.73;;;;;;;;;;6305525;28;20052;-70
2023/11/23 17:24:18;;;;;;;28.80;18.02;;;;;;;;;;6259262;28;20044;-70
2023/11/23 17:27:21;;;;;;;32.63;17.77;;;;;;;;;;6305323;28;20048;-69
2023/11/23 17:30:23;;;;;;;24.23;14.75;;;;;;;;;;6294246;28;20143;-69
2023/11/23 17:33:25;;;;;;;29.90;16.00;;;;;;;;;;6252414;28;20131;-70
2023/11/23 17:36:27;;;;;;;24.80;13.45;;;;;;;;;;6290032;28;20044;-70
2023/11/23 17:39:30;;;;;;;20.88;13.27;;;;;;;;;;6266825;28;20116;-70
2023/11/23 17:42:32;;;;;;;23.17;12.85;;;;;;;;;;6280212;28;20114;-70
2023/11/23 17:45:34;;;;;;;20.80;12.77;;;;;;;;;;6226219;28;20062;-70
2023/11/23 17:48:36;;;;;;;24.48;13.73;;;;;;;;;;6259904;28;20707;-70
2023/11/23 17:51:38;;;;;;;21.77;14.00;;;;;;;;;;6311063;28;20056;-70
2023/11/23 17:54:42;;;;;;;18.15;11.93;;;;;;;;;;6307998;28;20048;-70
2023/11/23 17:57:44;;;;;;;23.77;14.77;;;;;;;;;;6286981;28;20056;-70
2023/11/23 18:00:46;;;;;;;27.52;16.83;;;;;;;;;;6266708;28;20138;-71
2023/11/23 18:03:49;;;;;;;28.35;15.63;;;;;;;;;;6260520;28;20543;-70